Warm Springs Summit, Nevada Weather observations

Data are for observation ending at time listed.
 Day   Time    Ave.   Ave.  Ave.  Vector   Max.   Stn.    Total    Solar   Ave.  
  of    of     Air    Rel.  Wind   Wind    Wind   Baro.  Precip.   Rad.    Soil  
Year   Day     Temp.  Hum.  Speed  Dir.    Gust   Pres.                    Temp. 
2016   (PST)    F      %     mph   deg.    mph     mb.     in.     W/m2     F   
------------------------------------------------------------------------------
 271   14:30   71.5    14    9.5    58     16.6   776.5    0.00     584    70.4
 271   14:40   71.6    13    9.9    78     15.3   776.4    0.00     555    70.7
 271   14:50   72.0    13    8.8    65     14.4   776.3    0.00     525    70.9
 271   15:00   72.2    13    9.5    87     17.1   776.2    0.00     495    71.1
 271   15:10   71.6    12    9.8    83     15.3   776.1    0.00     463    71.3
 271   15:20   71.3    12    8.7    80     12.9   776.1    0.00     431    71.5
 271   15:30   71.5    12    9.2    88     14.6   776.1    0.00     398    71.7
 271   15:40   71.4    12    9.1    83     16.3   776.0    0.00     364    71.8
 271   15:50   70.6    13   10.2   103     15.0   776.0    0.00     329    72.0
 271   16:00   70.5    13    9.2    85     14.9   775.9    0.00     293    72.1
 271   16:10   69.7    14    8.6    78     13.4   775.9    0.00     258    72.2
 271   16:20   69.4    14   10.6    96     14.7   775.8    0.00     224    72.2
 271   16:30   68.9    15   10.4    84     15.5   775.8    0.00     189    72.3
 271   16:40   68.2    15    9.9    84     14.1   775.8    0.00     156    72.3
 271   16:50   67.8    15   11.5    88     15.2   775.8    0.00     120    72.4
 271   17:00   67.4    16   10.3    76     13.3   775.8    0.00      78    72.4
 271   17:10   67.0    16   10.6    81     14.6   775.8    0.00      42    72.5
 271   17:20   66.5    16   11.4    83     17.0   775.8    0.00      17    72.4
 271   17:30   66.4    16   11.8    85     14.5   775.8    0.00       5    72.4
 271   17:40   66.0    17   13.7    91     16.4   775.7    0.00       2    72.4
 271   17:50   65.8    18   13.1    88     16.9   775.7    0.00       0    72.3
 271   18:00   65.7    18   12.3    90     15.3   775.8    0.00       0    72.3
 271   18:10   65.5    18   12.1   100     14.9   775.8    0.00       0    72.2
 271   18:20   65.2    19   11.9   108     16.3   775.8    0.00       0    72.1
 271   18:30   65.4    19   12.7   110     17.2   775.8    0.00       0    72.0
 271   18:40   64.5    19   10.8   115     15.8   775.8    0.00       0    72.0
 271   18:50   64.2    19   10.3   120     13.3   775.9    0.00       0    71.9
 271   19:00   64.4    19   11.5   129     13.4   775.9    0.00       0    71.7
 271   19:10   64.5    19   11.1   134     14.2   776.0    0.00       0    71.6
 271   19:20   64.4    19   10.2   144     12.3   776.0    0.00       0    71.5
 271   19:30   64.9    18   10.6   156     12.8   776.1    0.00       0    71.3
 271   19:40   64.8    18   10.1   165     13.7   776.1    0.00       0    71.2
 271   19:50   64.8    18   10.3   163     12.7   776.2    0.00       0    71.1
 271   20:00   64.8    19   10.7   164     14.7   776.2    0.00       0    71.0
 271   20:10   64.6    19   11.4   152     15.4   776.3    0.00       0    70.9
 271   20:20   64.3    20   11.1   146     14.6   776.4    0.00       0    70.7
 271   20:30   64.1    20   11.7   152     15.2   776.4    0.00       0    70.6
 271   20:40   64.0    21   12.5   151     15.5   776.4    0.00       0    70.5
 271   20:50   64.1    21   12.6   155     15.5   776.4    0.00       0    70.3
 271   21:00   63.3    21   10.9   230     14.2   776.5    0.00       0    70.2
 271   21:10   62.7    21   10.3   258     14.2   776.5    0.00       0    70.0
 271   21:20   62.2    21   12.3   271     15.1   776.4    0.00       0    69.9
 271   21:30   61.7    21   13.8   277     15.8   776.4    0.00       0    69.7
 271   21:40   61.7    21   14.7   278     16.3   776.4    0.00       0    69.5
 271   21:50   61.6    22   14.1   274     16.6   776.4    0.00       0    69.4
 271   22:00   61.4    22   13.6   270     16.2   776.5    0.00       0    69.3
 271   22:10   61.7    22   13.0   266     19.0   776.5    0.00       0    69.2
 271   22:20   61.6    22   13.0   265     15.2   776.5    0.00       0    69.1
 271   22:30   61.5    22   13.0   271     16.5   776.5    0.00       0    69.0
 271   22:40   61.4    22   12.7   269     15.8   776.5    0.00       0    68.8
 271   22:50   61.1    23   12.4   267     14.8   776.5    0.00       0    68.6
 271   23:00   61.3    23   12.0   267     14.8   776.5    0.00       0    68.4
 271   23:10   61.2    23   11.7   256     14.3   776.5    0.00       0    68.3
 271   23:20   61.4    23   11.8   251     15.5   776.5    0.00       0    68.3
 271   23:30   61.4    23    9.9   257     12.8   776.5    0.00       0    68.1
 271   23:40   61.5    23   10.7   248     14.2   776.5    0.00       0    68.1
 271   23:50   61.7    22    9.3   255     14.8   776.5    0.00       0    67.9
 272    0:00   61.7    23    9.5   254     13.3   776.5    0.00       0    67.8
 272    0:10   61.4    23    9.7   255     13.0   776.5    0.00       0    67.7
 272    0:20   61.3    23    9.5   254     13.3   776.5    0.00       0    67.5
 272    0:30   61.2    23   10.1   250     14.6   776.5    0.00       0    67.4
 272    0:40   61.1    23    9.4   262     12.3   776.6    0.00       0    67.4
 272    0:50   60.6    24   10.0   264     13.3   776.7    0.00       0    67.2
 272    1:00   60.9    24   10.1   262     14.9   776.7    0.00       0    67.1
 272    1:10   61.2    23    9.0   247     11.8   776.7    0.00       0    67.0
 272    1:20   60.8    24    8.9   248     11.3   776.7    0.00       0    67.0
 272    1:30   60.5    24    9.0   264     11.9   776.7    0.00       0    66.9
 272    1:40   60.4    24    9.1   267     12.4   776.6    0.00       0    66.8
 272    1:50   60.2    24    8.9   270     11.1   776.6    0.00       0    66.7
 272    2:00   60.4    24    8.2   254     11.4   776.6    0.00       0    66.6
 272    2:10   60.6    24    7.1   268     12.2   776.6    0.00       0    66.5
 272    2:20   60.3    24    6.9   265      8.9   776.6    0.00       0    66.4
 272    2:30   60.5    24    5.4   251      7.5   776.6    0.00       0    66.3
 272    2:40   60.3    24    3.1   267      4.9   776.6    0.00       0    66.2
 272    2:50   59.7    25    0.0   237      1.0   776.6    0.00       0    66.1
 272    3:00   59.1    25    0.0     0      0.0   776.6    0.00       0    65.9
 272    3:10   59.4    25    2.3    58      4.6   776.7    0.00       0    65.9
 272    3:20   59.6    24    5.2    50      6.8   776.6    0.00       0    65.8
 272    3:30   59.5    25    5.5    52      6.7   776.6    0.00       0    65.6
 272    3:40   59.6    25    5.4    49      6.9   776.7    0.00       0    65.6
 272    3:50   59.4    25    5.8    47      7.1   776.7    0.00       0    65.4
 272    4:00   59.3    25    5.4    48      6.4   776.8    0.00       0    65.3
 272    4:10   59.7    24    4.2    62      5.8   776.8    0.00       0    65.2
 272    4:20   59.5    25    5.0    70      7.4   776.8    0.00       0    65.1
 272    4:30   59.0    25    4.7    33      6.0   776.8    0.00       0    65.0
 272    4:40   59.0    25    4.4    48      5.7   776.8    0.00       0    64.9
 272    4:50   59.4    25    3.4    86      5.6   776.9    0.00       0    64.8
 272    5:00   59.2    26    3.3    86      5.4   776.9    0.00       0    64.7
 272    5:10   58.2    26    5.6   115      8.2   776.9    0.00       0    64.6
 272    5:20   58.3    26    5.7   108      7.1   776.9    0.00       1    64.5
 272    5:30   58.3    26    6.3   107      8.7   777.0    0.00       2    64.4
 272    5:40   58.0    26    6.3    99      8.7   777.0    0.00       6    64.3
 272    5:50   58.8    26    6.5   102      7.9   777.0    0.00      23    63.9
 272    6:00   59.1    26    6.4   100      8.2   777.1    0.00      49    63.7
 272    6:10   60.3    24    6.4    88      8.4   777.2    0.00     108    63.7
 272    6:20   61.4    24    6.9    98      9.0   777.2    0.00     170    63.7
 272    6:30   62.2    23    6.4    91      9.0   777.2    0.00     197    63.7
 272    6:40   62.4    23    7.2    96      8.7   777.3    0.00     200    63.5
 272    6:50   62.6    23    6.9   103     10.0   777.3    0.00     201    63.4
 272    7:00   62.6    23    7.2   104     10.0   777.4    0.00     249    63.3
 272    7:10   62.9    23    7.8   108     11.2   777.5    0.00     280    63.5
 272    7:20   62.5    23    7.4   103     10.6   777.5    0.00     313    63.4
 272    7:30   63.6    23    6.5   101      8.8   777.5    0.00     346    63.4
 272    7:40   64.1    22    7.1    93      9.5   777.5    0.00     380    63.3
 272    7:50   64.4    22    7.5    99     11.0   777.6    0.00     413    63.3
 272    8:00   63.9    22    8.3   101     12.2   777.6    0.00     445    63.2
 272    8:10   63.9    23    9.3   111     12.4   777.6    0.00     477    63.2
 272    8:20   63.7    22    9.3   105     14.4   777.6    0.00     507    63.3
 272    8:30   64.1    22    8.3    98     12.1   777.7    0.00     536    63.3
 272    8:40   64.2    22    9.1   106     13.5   777.7    0.00     564    63.3
 272    8:50   63.9    23   10.1   111     14.4   777.7    0.00     591    63.4
 272    9:00   64.0    22   10.5   114     16.2   777.7    0.00     617    63.5
 272    9:10   64.1    22    9.4   111     15.8   777.7    0.00     642    63.6
 272    9:20   64.4    22    9.8   113     14.2   777.7    0.00     668    63.7
 272    9:30   64.9    22   10.7   110     15.7   777.7    0.00     696    63.8
 272    9:40   65.3    22    9.8   100     15.4   777.7    0.00     719    64.0
 272    9:50   66.7    21   10.1   112     16.7   777.7    0.00     736    64.2
 272   10:00   67.9    20   12.2   130     18.1   777.7    0.00     756    64.3
 272   10:10   67.5    22   14.8   128     23.7   777.6    0.00     780    64.5
 272   10:20   67.7    22   16.1   132     24.1   777.5    0.00     849    64.7
 272   10:30   67.4    22   16.6   130     23.1   777.5    0.00     842    64.9
 272   10:40   67.8    22   17.7   136     25.3   777.4    0.00     919    65.1
 272   10:50   68.2    22   18.8   136     26.6   777.3    0.00     898    65.3
 272   11:00   68.1    23   16.4   134     25.1   777.4    0.00     891    65.6
 272   11:10   68.3    24   19.0   137     26.2   777.3    0.00     528    65.8
 272   11:20   66.4    26   20.9   141     27.8   777.2    0.00     487    66.1
 272   11:30   66.0    27   19.9   137     27.9   777.2    0.00     494    66.4
 272   11:40   65.8    27   18.4   140     27.5   777.2    0.00     439    66.6
 272   11:50   65.6    28   15.4   152     24.7   777.2    0.00     411    66.9
 272   12:00   64.3    30   15.5   149     24.4   777.2    0.00     236    67.1
 272   12:10   64.0    31   17.9   136     24.7   777.1    0.00     338    67.4
 272   12:20   64.7    31   19.3   149     24.4   777.0    0.00     339    67.6
 272   12:30   64.3    31   16.7   153     22.7   777.0    0.00     364    67.8
 272   12:40   63.9    32   16.4   157     23.1   776.9    0.00     229    67.9
 272   12:50   63.0    33   14.4   154     20.3   776.9    0.00     180    68.2
 272   13:00   63.5    31   13.5   140     20.1   776.9    0.00     262    68.3
 272   13:10   65.0    30    9.4   124     16.0   776.9    0.00     557    68.5
 272   13:20   66.4    28   11.4   136     19.7   776.8    0.00     514    68.7
 272   13:30   67.7    27   13.5   146     21.1   776.8    0.00     805    68.8
 272   13:40   66.8    28   12.5   139     20.8   776.7    0.00     478    68.9
 272   13:50   67.6    27   10.9   137     22.4   776.7    0.00     869    69.0
 272   14:00   68.2    27   11.5   136     22.3   776.7    0.00     807    69.1
 272   14:10   67.2    28    8.6    95     15.7   776.7    0.00     385    69.2
 272   14:20   67.2    28    5.5   112     12.8   776.6    0.00     304    69.1

Return to Warm Springs Summit, Nevada graphs page.


Western Regional Climate Center,wrcc@dri.edu